createdAt,value
2023-04-01T00:01:19.966Z,9.73
2023-04-01T00:03:47.272Z,9.90
2023-04-01T00:06:14.661Z,9.55
2023-04-01T00:08:41.810Z,9.00
2023-04-01T00:11:09.079Z,9.25
2023-04-01T00:13:36.907Z,8.63
2023-04-01T00:16:13.391Z,9.43
2023-04-01T00:18:48.460Z,8.68
2023-04-01T00:21:16.175Z,9.20
2023-04-01T00:23:43.449Z,8.95
2023-04-01T00:26:10.753Z,7.85
2023-04-01T00:28:38.855Z,7.55
2023-04-01T00:31:06.243Z,7.95
2023-04-01T00:33:33.526Z,7.20
2023-04-01T00:36:00.754Z,8.77
2023-04-01T00:38:27.928Z,8.40
2023-04-01T00:40:55.782Z,8.70
2023-04-01T00:43:22.999Z,9.07
2023-04-01T00:45:50.470Z,10.63
2023-04-01T00:48:17.684Z,8.20
2023-04-01T00:50:44.896Z,9.55
2023-04-01T00:53:12.168Z,8.27
2023-04-01T00:55:39.932Z,8.55
2023-04-01T00:58:07.160Z,8.10
2023-04-01T01:00:34.470Z,8.32
2023-04-01T01:03:03.639Z,7.53
2023-04-01T01:05:34.139Z,8.30
2023-04-01T01:08:03.146Z,8.18
2023-04-01T01:10:30.461Z,9.48
2023-04-01T01:12:57.729Z,7.93
2023-04-01T01:15:24.919Z,7.60
2023-04-01T01:17:52.255Z,8.07
2023-04-01T01:20:25.944Z,7.90
2023-04-01T01:22:54.498Z,8.07
2023-04-01T01:25:21.753Z,8.00
2023-04-01T01:27:49.002Z,8.25
2023-04-01T01:30:16.737Z,7.78
2023-04-01T01:32:44.043Z,7.68
2023-04-01T01:35:11.278Z,6.57
2023-04-01T01:37:38.550Z,8.18
2023-04-01T01:40:06.186Z,7.45
2023-04-01T01:42:35.011Z,7.82
2023-04-01T01:45:02.323Z,7.82
2023-04-01T01:47:29.808Z,7.35
2023-04-01T01:49:57.278Z,7.93
2023-04-01T01:52:24.641Z,5.50
2023-04-01T01:54:52.487Z,5.05
2023-04-01T01:57:21.333Z,3.90
2023-04-01T01:59:51.733Z,4.32
2023-04-01T02:02:24.475Z,3.40
2023-04-01T02:04:51.843Z,4.10
2023-04-01T02:07:19.090Z,4.18
2023-04-01T02:09:46.911Z,3.00
2023-04-01T02:12:14.300Z,4.20
2023-04-01T02:14:42.512Z,3.92
2023-04-01T02:17:09.726Z,3.45
2023-04-01T02:19:37.021Z,3.42
2023-04-01T02:22:04.846Z,3.10
2023-04-01T02:24:32.065Z,3.97
2023-04-01T02:26:59.338Z,3.67
2023-04-01T02:29:28.143Z,3.90
2023-04-01T02:31:55.439Z,3.30
2023-04-01T02:34:22.862Z,4.00
2023-04-01T02:36:50.050Z,3.45
2023-04-01T02:39:17.305Z,3.28
2023-04-01T02:41:44.559Z,3.90
2023-04-01T02:44:11.831Z,3.95
2023-04-01T02:46:39.154Z,3.15
2023-04-01T02:49:06.495Z,3.85
2023-04-01T02:51:33.729Z,4.07
2023-04-01T02:54:01.022Z,3.60
2023-04-01T02:56:29.281Z,3.63
2023-04-01T02:58:56.845Z,3.35
2023-04-01T03:01:24.051Z,2.80
2023-04-01T03:03:51.357Z,3.17
2023-04-01T03:06:18.590Z,4.43
2023-04-01T03:08:46.010Z,3.55
2023-04-01T03:11:13.353Z,3.47
2023-04-01T03:13:40.788Z,3.85
2023-04-01T03:16:08.128Z,2.92
2023-04-01T03:18:36.183Z,4.43
2023-04-01T03:21:03.465Z,3.50
2023-04-01T03:23:30.969Z,2.40
2023-04-01T03:25:58.210Z,2.75
2023-04-01T03:28:25.607Z,2.22
2023-04-01T03:30:52.899Z,2.15
2023-04-01T03:33:20.186Z,2.03
2023-04-01T03:35:48.781Z,2.10
2023-04-01T03:38:16.642Z,2.10
2023-04-01T03:40:43.943Z,2.17
2023-04-01T03:43:12.288Z,2.15
2023-04-01T03:45:39.714Z,2.53
2023-04-01T03:48:07.023Z,2.67
2023-04-01T03:50:34.266Z,2.53
2023-04-01T03:53:01.663Z,2.20
2023-04-01T03:55:28.876Z,1.95
2023-04-01T03:57:56.393Z,2.95
2023-04-01T04:00:24.313Z,2.20
2023-04-01T04:02:56.977Z,1.75
2023-04-01T04:05:30.389Z,2.55
2023-04-01T04:07:57.797Z,2.28
2023-04-01T04:10:27.655Z,2.88
2023-04-01T04:12:55.004Z,2.45
2023-04-01T04:15:24.168Z,2.65
2023-04-01T04:17:51.964Z,2.97
2023-04-01T04:20:19.358Z,1.92
2023-04-01T04:22:46.667Z,3.67
2023-04-01T04:25:14.000Z,1.60
2023-04-01T04:27:41.289Z,4.05
2023-04-01T04:30:11.085Z,2.33
2023-04-01T04:32:38.537Z,3.00
2023-04-01T04:35:07.471Z,1.92
2023-04-01T04:37:35.433Z,2.13
2023-04-01T04:40:02.906Z,1.70
2023-04-01T04:42:31.309Z,2.05
2023-04-01T04:45:04.294Z,1.60
2023-04-01T04:47:31.663Z,1.70
2023-04-01T04:49:58.909Z,1.63
2023-04-01T04:52:26.340Z,1.58
2023-04-01T04:54:53.706Z,1.58
2023-04-01T04:57:21.385Z,1.30
2023-04-01T04:59:56.735Z,1.85
2023-04-01T05:02:43.872Z,1.50
2023-04-01T05:05:11.567Z,2.25
2023-04-01T05:07:38.884Z,1.73
2023-04-01T05:10:06.504Z,1.90
2023-04-01T05:12:37.341Z,2.30
2023-04-01T05:15:06.433Z,1.88
2023-04-01T05:17:33.910Z,2.15
2023-04-01T05:20:01.790Z,2.60
2023-04-01T05:22:30.623Z,2.17
2023-04-01T05:24:58.028Z,2.50
2023-04-01T05:27:25.578Z,1.95
2023-04-01T05:29:52.881Z,2.03
2023-04-01T05:32:52.225Z,1.90
2023-04-01T05:35:19.630Z,2.05
2023-04-01T05:37:46.985Z,1.80
2023-04-01T05:40:14.460Z,1.75
2023-04-01T05:42:41.624Z,1.50
2023-04-01T05:45:09.673Z,1.98
2023-04-01T05:48:03.316Z,2.10
2023-04-01T05:50:35.798Z,1.50
2023-04-01T05:53:04.554Z,1.80
2023-04-01T05:55:32.056Z,1.58
2023-04-01T05:57:59.584Z,1.92
2023-04-01T06:00:28.470Z,1.90
2023-04-01T06:02:57.272Z,2.20
2023-04-01T06:05:24.632Z,2.13
2023-04-01T06:07:51.968Z,2.08
2023-04-01T06:10:19.222Z,2.55
2023-04-01T06:12:47.221Z,2.60
2023-04-01T06:15:15.232Z,2.80
2023-04-01T06:17:43.800Z,2.42
2023-04-01T06:20:13.098Z,2.88
2023-04-01T06:22:40.677Z,3.08
2023-04-01T06:25:08.332Z,2.83
2023-04-01T06:27:35.801Z,2.83
2023-04-01T06:30:03.279Z,2.75
2023-04-01T06:32:30.888Z,2.70
2023-04-01T06:34:58.252Z,2.70
2023-04-01T06:37:25.670Z,2.45
2023-04-01T06:39:53.002Z,2.55
2023-04-01T06:42:20.308Z,2.88
2023-04-01T06:44:49.649Z,2.60
2023-04-01T06:47:35.365Z,2.42
2023-04-01T06:50:22.007Z,2.97
2023-04-01T06:53:09.264Z,3.17
2023-04-01T06:55:56.841Z,2.47
2023-04-01T06:58:32.966Z,2.47
2023-04-01T07:01:00.443Z,3.10
2023-04-01T07:03:30.225Z,2.40
2023-04-01T07:05:57.721Z,2.55
2023-04-01T07:08:25.547Z,2.47
2023-04-01T07:10:52.902Z,2.42
2023-04-01T07:13:38.699Z,2.58
2023-04-01T07:16:14.361Z,2.97
2023-04-01T07:18:43.806Z,3.08
2023-04-01T07:21:11.323Z,3.25
2023-04-01T07:23:38.630Z,2.65
2023-04-01T07:26:44.557Z,3.28
2023-04-01T07:29:15.600Z,2.92
2023-04-01T07:31:53.588Z,2.45
2023-04-01T07:34:20.890Z,2.80
2023-04-01T07:36:48.125Z,2.88
2023-04-01T07:39:15.490Z,2.40
2023-04-01T07:42:01.029Z,2.65
2023-04-01T07:44:29.005Z,3.30
2023-04-01T07:46:56.215Z,3.30
2023-04-01T07:49:23.588Z,3.42
2023-04-01T07:51:50.849Z,3.25
2023-04-01T07:54:18.178Z,3.63
2023-04-01T07:56:46.141Z,3.15
2023-04-01T07:59:18.513Z,3.08
2023-04-01T08:01:54.795Z,3.22
2023-04-01T08:04:22.351Z,3.17
2023-04-01T08:06:49.802Z,3.08
2023-04-01T08:09:17.868Z,3.67
2023-04-01T08:12:03.557Z,3.00
2023-04-01T08:14:49.380Z,3.17
2023-04-01T08:17:34.908Z,4.30
2023-04-01T08:20:02.295Z,5.13
2023-04-01T08:22:32.694Z,4.15
2023-04-01T08:25:03.856Z,3.65
2023-04-01T08:27:31.532Z,3.85
2023-04-01T08:29:58.762Z,4.18
2023-04-01T08:32:26.061Z,4.93
2023-04-01T08:34:53.348Z,4.70
2023-04-01T08:37:31.029Z,5.38
2023-04-01T08:39:59.557Z,4.82
2023-04-01T08:42:26.832Z,4.50
2023-04-01T08:45:01.373Z,3.92
2023-04-01T08:47:31.440Z,3.58
2023-04-01T08:50:00.820Z,4.43
2023-04-01T08:52:53.968Z,3.92
2023-04-01T08:55:21.323Z,4.15
2023-04-01T08:58:06.285Z,3.90
2023-04-01T09:00:44.024Z,4.00
2023-04-01T09:03:16.144Z,4.68
2023-04-01T09:05:43.535Z,4.85
2023-04-01T09:08:10.968Z,4.25
2023-04-01T09:10:38.565Z,4.18
2023-04-01T09:13:21.402Z,3.70
2023-04-01T09:15:48.805Z,3.47
2023-04-01T09:18:16.151Z,3.20
2023-04-01T09:20:44.173Z,3.53
2023-04-01T09:23:11.517Z,3.30
2023-04-01T09:25:38.889Z,3.30
2023-04-01T09:28:06.366Z,3.47
2023-04-01T09:30:33.710Z,2.97
2023-04-01T09:33:01.059Z,3.25
2023-04-01T09:35:29.707Z,2.80
2023-04-01T09:38:01.118Z,3.10
2023-04-01T09:40:28.366Z,2.50
2023-04-01T09:43:00.522Z,2.60
2023-04-01T09:45:30.444Z,2.47
2023-04-01T09:47:57.880Z,3.38
2023-04-01T09:50:25.603Z,2.42
2023-04-01T09:52:53.023Z,3.63
2023-04-01T09:55:27.073Z,2.83
2023-04-01T09:57:55.840Z,2.90
2023-04-01T10:00:43.069Z,2.90
2023-04-01T10:03:11.805Z,3.28
2023-04-01T10:05:39.279Z,3.10
2023-04-01T10:08:07.417Z,2.65
2023-04-01T10:10:35.813Z,3.28
2023-04-01T10:13:03.225Z,3.53
2023-04-01T10:15:31.361Z,3.30
2023-04-01T10:17:59.468Z,4.05
2023-04-01T10:20:27.598Z,3.13
2023-04-01T10:22:54.900Z,4.25
2023-04-01T10:25:22.311Z,2.90
2023-04-01T10:27:53.828Z,3.05
2023-04-01T10:30:41.339Z,2.20
2023-04-01T10:33:16.745Z,2.00
2023-04-01T10:35:45.511Z,2.17
2023-04-01T10:38:13.310Z,1.98
2023-04-01T10:40:41.160Z,1.73
2023-04-01T10:43:26.326Z,1.85
2023-04-01T10:46:03.043Z,1.65
2023-04-01T10:48:30.576Z,1.50
2023-04-01T10:50:57.821Z,2.53
2023-04-01T10:53:25.146Z,1.90
2023-04-01T10:56:10.847Z,2.20
2023-04-01T10:58:56.795Z,2.55
2023-04-01T11:01:46.032Z,2.20
2023-04-01T11:04:51.808Z,2.35
2023-04-01T11:07:37.704Z,2.45
2023-04-01T11:10:05.262Z,2.35
2023-04-01T11:12:37.737Z,2.25
2023-04-01T11:15:05.416Z,2.50
2023-04-01T11:17:32.668Z,2.28
2023-04-01T11:20:00.949Z,2.47
2023-04-01T11:22:30.393Z,3.78
2023-04-01T11:24:57.666Z,3.28
2023-04-01T11:27:50.503Z,2.88
2023-04-01T11:30:17.859Z,3.20
2023-04-01T11:32:45.138Z,3.92
2023-04-01T11:35:13.312Z,3.15
2023-04-01T11:37:40.497Z,3.22
2023-04-01T11:40:26.232Z,3.42
2023-04-01T11:43:22.992Z,3.90
2023-04-01T11:46:33.511Z,3.90
2023-04-01T11:49:01.389Z,3.25
2023-04-01T11:51:28.907Z,3.85
2023-04-01T11:53:56.213Z,3.47
2023-04-01T11:56:23.569Z,3.58
2023-04-01T11:58:52.464Z,3.03
2023-04-01T12:01:20.895Z,3.25
2023-04-01T12:03:48.387Z,3.55
2023-04-01T12:06:15.818Z,3.42
2023-04-01T12:08:43.164Z,3.15
2023-04-01T12:11:10.497Z,3.55
2023-04-01T12:13:37.825Z,3.05
2023-04-01T12:16:05.148Z,3.05
2023-04-01T12:18:32.440Z,2.85
2023-04-01T12:20:59.644Z,2.67
2023-04-01T12:23:27.022Z,2.63
2023-04-01T12:25:54.245Z,2.35
2023-04-01T12:28:21.603Z,3.40
2023-04-01T12:30:53.169Z,2.60
2023-04-01T12:33:20.792Z,2.65
2023-04-01T12:35:48.149Z,2.10
2023-04-01T12:38:16.015Z,2.60
2023-04-01T12:40:43.262Z,2.70
2023-04-01T12:43:10.656Z,2.17
2023-04-01T12:45:37.945Z,2.65
2023-04-01T12:48:05.313Z,1.80
2023-04-01T12:50:32.638Z,2.03
2023-04-01T12:53:04.154Z,1.75
2023-04-01T12:55:31.701Z,1.75
2023-04-01T12:58:00.141Z,1.55
2023-04-01T13:00:27.485Z,1.90
2023-04-01T13:02:54.819Z,1.48
2023-04-01T13:05:22.180Z,1.60
2023-04-01T13:07:49.459Z,1.30
2023-04-01T13:10:16.694Z,1.30
2023-04-01T13:12:44.060Z,1.85
2023-04-01T13:15:11.760Z,1.42
2023-04-01T13:17:39.238Z,1.60
2023-04-01T13:20:06.676Z,1.30
2023-04-01T13:22:33.980Z,1.45
2023-04-01T13:25:01.556Z,1.88
2023-04-01T13:27:28.864Z,1.38
2023-04-01T13:29:56.216Z,1.55
2023-04-01T13:32:33.347Z,1.58
2023-04-01T13:35:07.941Z,1.48
2023-04-01T13:37:36.191Z,1.00
2023-04-01T13:40:04.946Z,1.52
2023-04-01T13:42:32.157Z,1.45
2023-04-01T13:44:59.475Z,1.67
2023-04-01T13:47:26.692Z,1.60
2023-04-01T13:49:54.037Z,2.05
2023-04-01T13:52:25.445Z,2.17
2023-04-01T13:54:52.681Z,1.40
2023-04-01T13:57:20.203Z,1.90
2023-04-01T13:59:48.349Z,1.65
2023-04-01T14:02:15.896Z,1.50
2023-04-01T14:04:43.157Z,1.08
2023-04-01T14:07:10.709Z,1.10
2023-04-01T14:09:37.904Z,1.10
2023-04-01T14:12:05.146Z,0.80
2023-04-01T14:14:32.394Z,1.00
2023-04-01T14:16:59.619Z,1.10
2023-04-01T14:19:28.939Z,1.00
2023-04-01T14:21:56.297Z,0.85
2023-04-01T14:24:23.708Z,1.27
2023-04-01T14:26:51.109Z,1.02
2023-04-01T14:29:18.356Z,1.08
2023-04-01T14:31:45.703Z,1.40
2023-04-01T14:34:13.015Z,1.10
2023-04-01T14:36:40.280Z,1.10
2023-04-01T14:39:07.501Z,1.10
2023-04-01T14:41:34.680Z,0.82
2023-04-01T14:44:01.995Z,0.70
2023-04-01T14:46:29.297Z,0.85
2023-04-01T14:48:56.654Z,1.27
2023-04-01T14:51:23.894Z,0.77
2023-04-01T14:53:52.134Z,1.20
2023-04-01T14:56:19.309Z,1.10
2023-04-01T14:58:46.657Z,1.15
2023-04-01T15:01:13.915Z,1.13
2023-04-01T15:03:41.422Z,2.63
2023-04-01T15:06:08.605Z,1.00
2023-04-01T15:08:37.716Z,1.25
2023-04-01T15:11:04.919Z,1.48
2023-04-01T15:13:32.198Z,1.60
2023-04-01T15:15:59.363Z,1.45
2023-04-01T15:18:26.624Z,1.33
2023-04-01T15:20:53.963Z,1.48
2023-04-01T15:23:21.567Z,1.73
2023-04-01T15:25:48.873Z,1.70
2023-04-01T15:28:16.430Z,1.67
2023-04-01T15:30:43.685Z,2.40
2023-04-01T15:33:11.239Z,1.80
2023-04-01T15:35:38.682Z,1.50
2023-04-01T15:38:06.105Z,1.50
2023-04-01T15:40:33.343Z,1.98
2023-04-01T15:43:00.794Z,1.65
2023-04-01T15:45:28.472Z,1.50
2023-04-01T15:47:56.004Z,2.00
2023-04-01T15:50:23.256Z,2.22
2023-04-01T15:52:50.583Z,2.10
2023-04-01T15:55:17.792Z,2.15
2023-04-01T15:57:46.880Z,2.00
2023-04-01T16:00:14.160Z,2.65
2023-04-01T16:02:41.434Z,2.22
2023-04-01T16:05:08.761Z,1.90
2023-04-01T16:07:36.043Z,2.35
2023-04-01T16:10:03.697Z,2.28
2023-04-01T16:12:31.107Z,2.20
2023-04-01T16:14:58.486Z,2.58
2023-04-01T16:17:28.496Z,3.13
2023-04-01T16:19:55.892Z,2.55
2023-04-01T16:22:23.124Z,2.30
2023-04-01T16:24:50.592Z,3.70
2023-04-01T16:27:17.780Z,3.10
2023-04-01T16:29:45.073Z,3.72
2023-04-01T16:32:12.374Z,3.72
2023-04-01T16:34:39.875Z,3.05
2023-04-01T16:37:07.419Z,2.75
2023-04-01T16:39:37.320Z,3.10
2023-04-01T16:42:04.578Z,2.60
2023-04-01T16:44:31.889Z,4.32
2023-04-01T16:46:59.167Z,3.30
2023-04-01T16:49:26.411Z,3.15
2023-04-01T16:51:56.012Z,2.78
2023-04-01T16:54:23.236Z,2.70
2023-04-01T16:56:50.733Z,2.85
2023-04-01T16:59:18.006Z,3.92
2023-04-01T17:01:45.369Z,3.20
2023-04-01T17:04:12.720Z,3.35
2023-04-01T17:06:40.106Z,2.90
2023-04-01T17:09:07.270Z,3.60
2023-04-01T17:11:34.534Z,3.22
2023-04-01T17:14:01.717Z,3.17
2023-04-01T17:16:29.071Z,2.50
2023-04-01T17:18:56.555Z,6.28
2023-04-01T17:21:23.779Z,3.20
2023-04-01T17:23:51.260Z,3.47
2023-04-01T17:26:18.613Z,4.55
2023-04-01T17:28:46.985Z,3.35
2023-04-01T17:31:14.317Z,2.72
2023-04-01T17:33:41.528Z,3.47
2023-04-01T17:36:08.875Z,4.93
2023-04-01T17:38:37.224Z,2.47
2023-04-01T17:41:04.564Z,2.35
2023-04-01T17:43:32.225Z,3.72
2023-04-01T17:45:59.587Z,2.53
2023-04-01T17:48:26.898Z,4.72
2023-04-01T17:50:54.245Z,5.18
2023-04-01T17:53:21.796Z,3.00
2023-04-01T17:55:49.114Z,4.60
2023-04-01T17:58:16.550Z,5.00
2023-04-01T18:00:53.611Z,3.45
2023-04-01T18:03:21.851Z,3.15
2023-04-01T18:05:49.369Z,3.65
2023-04-01T18:08:17.260Z,3.58
2023-04-01T18:10:44.553Z,3.22
2023-04-01T18:13:11.864Z,3.08
2023-04-01T18:15:39.064Z,3.90
2023-04-01T18:18:06.417Z,3.78
2023-04-01T18:20:34.041Z,4.07
2023-04-01T18:23:02.657Z,3.53
2023-04-01T18:25:29.944Z,2.65
2023-04-01T18:27:57.266Z,3.35
2023-04-01T18:30:24.501Z,6.05
2023-04-01T18:32:51.853Z,4.60
2023-04-01T18:35:19.399Z,2.83
2023-04-01T18:37:46.930Z,3.17
2023-04-01T18:40:14.201Z,3.17
2023-04-01T18:42:41.434Z,4.82
2023-04-01T18:45:08.677Z,3.95
2023-04-01T18:47:35.991Z,3.80
2023-04-01T18:50:03.206Z,2.17
2023-04-01T18:52:30.521Z,2.00
2023-04-01T18:54:57.927Z,3.35
2023-04-01T18:57:25.273Z,1.92
2023-04-01T18:59:55.633Z,3.00
2023-04-01T19:02:23.355Z,2.35
2023-04-01T19:04:51.696Z,3.05
2023-04-01T19:07:18.992Z,3.10
2023-04-01T19:09:46.606Z,3.75
2023-04-01T19:12:13.878Z,1.85
2023-04-01T19:14:41.185Z,3.83
2023-04-01T19:17:08.372Z,0.88
2023-04-01T19:19:35.673Z,2.28
2023-04-01T19:22:02.990Z,3.95
2023-04-01T19:24:30.399Z,2.22
2023-04-01T19:26:57.618Z,2.10
2023-04-01T19:29:24.951Z,1.85
2023-04-01T19:31:52.235Z,3.28
2023-04-01T19:34:20.012Z,2.30
2023-04-01T19:36:48.560Z,1.60
2023-04-01T19:39:17.191Z,3.75
2023-04-01T19:41:45.458Z,1.80
2023-04-01T19:44:12.742Z,3.08
2023-04-01T19:46:40.459Z,2.15
2023-04-01T19:49:07.674Z,3.85
2023-04-01T19:51:34.898Z,2.95
2023-04-01T19:54:02.103Z,1.95
2023-04-01T19:56:32.571Z,2.78
2023-04-01T19:58:59.873Z,1.95
2023-04-01T20:01:34.675Z,2.65
2023-04-01T20:04:09.200Z,2.85
2023-04-01T20:06:36.597Z,2.38
2023-04-01T20:09:03.878Z,2.53
2023-04-01T20:11:31.392Z,2.90
2023-04-01T20:13:58.663Z,2.72
2023-04-01T20:16:26.111Z,2.13
2023-04-01T20:18:53.946Z,1.50
2023-04-01T20:21:21.264Z,1.90
2023-04-01T20:23:48.540Z,1.90
2023-04-01T20:26:15.893Z,2.13
2023-04-01T20:28:43.139Z,1.40
2023-04-01T20:31:10.421Z,1.90
2023-04-01T20:33:37.702Z,2.17
2023-04-01T20:36:04.915Z,3.25
2023-04-01T20:38:32.169Z,2.65
2023-04-01T20:40:59.346Z,1.83
2023-04-01T20:43:26.838Z,2.08
2023-04-01T20:45:54.075Z,2.10
2023-04-01T20:48:21.589Z,4.35
2023-04-01T20:50:48.782Z,2.08
2023-04-01T20:53:16.092Z,2.35
2023-04-01T20:55:43.339Z,2.25
2023-04-01T20:58:10.690Z,2.60
2023-04-01T21:00:37.894Z,4.10
2023-04-01T21:03:05.530Z,2.15
2023-04-01T21:05:33.122Z,3.17
2023-04-01T21:08:00.737Z,1.48
2023-04-01T21:10:27.933Z,1.77
2023-04-01T21:12:55.248Z,1.55
2023-04-01T21:15:22.410Z,2.78
2023-04-01T21:17:49.977Z,1.25
2023-04-01T21:20:17.419Z,1.77
2023-04-01T21:22:44.716Z,2.55
2023-04-01T21:25:12.745Z,1.73
2023-04-01T21:27:40.041Z,2.65
2023-04-01T21:30:07.301Z,3.05
2023-04-01T21:32:34.586Z,2.72
2023-04-01T21:35:01.981Z,1.13
2023-04-01T21:37:29.257Z,1.95
2023-04-01T21:39:56.473Z,1.90
2023-04-01T21:42:23.706Z,2.28
2023-04-01T21:44:51.052Z,1.70
2023-04-01T21:47:18.267Z,1.48
2023-04-01T21:49:45.711Z,1.10
2023-04-01T21:52:13.010Z,1.00
2023-04-01T21:54:40.666Z,1.20
2023-04-01T21:57:07.886Z,1.40
2023-04-01T21:59:35.250Z,1.02
2023-04-01T22:02:02.504Z,1.20
2023-04-01T22:04:30.026Z,1.70
2023-04-01T22:06:57.401Z,1.60
2023-04-01T22:09:25.003Z,1.13
2023-04-01T22:11:55.411Z,1.58
2023-04-01T22:14:22.952Z,1.20
2023-04-01T22:16:51.215Z,1.27
2023-04-01T22:19:21.057Z,0.95
2023-04-01T22:21:53.197Z,1.27
2023-04-01T22:24:20.492Z,1.45
2023-04-01T22:26:47.674Z,1.33
2023-04-01T22:29:15.095Z,1.33
2023-04-01T22:31:42.386Z,2.17
2023-04-01T22:34:09.790Z,1.52
2023-04-01T22:36:37.043Z,1.38
2023-04-01T22:39:04.653Z,0.98
2023-04-01T22:41:32.121Z,0.98
2023-04-01T22:43:59.464Z,2.15
2023-04-01T22:46:27.469Z,2.95
2023-04-01T22:48:55.129Z,1.30
2023-04-01T22:51:22.386Z,1.88
2023-04-01T22:53:49.628Z,1.73
2023-04-01T22:56:16.857Z,2.13
2023-04-01T22:58:44.190Z,1.90
2023-04-01T23:01:11.443Z,1.10
2023-04-01T23:03:41.281Z,1.30
2023-04-01T23:06:08.514Z,1.48
2023-04-01T23:08:35.803Z,3.13
2023-04-01T23:11:03.531Z,0.90
2023-04-01T23:13:30.745Z,1.15
2023-04-01T23:15:58.055Z,1.52
2023-04-01T23:18:25.298Z,1.73
2023-04-01T23:20:52.718Z,2.80
2023-04-01T23:23:20.076Z,3.88
2023-04-01T23:25:47.339Z,2.13
2023-04-01T23:28:14.638Z,1.60
2023-04-01T23:30:41.959Z,1.13
2023-04-01T23:33:09.275Z,1.23
2023-04-01T23:35:36.861Z,1.17
2023-04-01T23:38:04.328Z,1.02
2023-04-01T23:40:31.518Z,1.77
2023-04-01T23:42:58.780Z,0.93
2023-04-01T23:45:26.107Z,1.95
2023-04-01T23:47:53.383Z,1.17
2023-04-01T23:50:20.895Z,1.00
2023-04-01T23:52:48.171Z,1.50
2023-04-01T23:55:15.351Z,2.00
2023-04-01T23:57:42.670Z,1.60
